Alma, New York
Current Conditions -  °F | °C
As of 3:56 AM on Tuesday 21 Oct 2014 (Local Time) from KELZ Reporting Station
Light Rain Light Rain  
Wind Chill: 43°   Ceiling: 700
Heat Index: 46°   Visibility: 10mi
Dew Point: 44°   Wind: 6mph
Humidity: 93%   Direction: 210°SSW
Pressure: 29.81"   Gusts: NA
Location:  42.01°N, 78.06°W
Report Text: KELZ 210756Z AUTO 21005KT 10SM -RA BKN007 OVC060 08/07 A2981 RMK AO2 SLP097 P0000 T00780067
Loading
Personal Weather Stations






























Interactive Weather Map New forecast layout! Learn more

10-Day Weather Forecast

Advertisements
Track Severe Weather on mobile